sensor_id;sensor_type;location;lat;lon;timestamp;P1;durP1;ratioP1;P2;durP2;ratioP2
5900;SDS011;2976;49.764;9.796;2023-07-24T00:00:22;5.07;;;3.17;;
5900;SDS011;2976;49.764;9.796;2023-07-24T00:02:48;5.13;;;3.40;;
5900;SDS011;2976;49.764;9.796;2023-07-24T00:05:13;4.30;;;3.03;;
5900;SDS011;2976;49.764;9.796;2023-07-24T00:07:39;8.37;;;3.33;;
5900;SDS011;2976;49.764;9.796;2023-07-24T00:10:05;4.37;;;3.70;;
5900;SDS011;2976;49.764;9.796;2023-07-24T00:12:31;4.43;;;3.70;;
5900;SDS011;2976;49.764;9.796;2023-07-24T00:14:56;5.03;;;3.40;;
5900;SDS011;2976;49.764;9.796;2023-07-24T00:17:22;5.57;;;3.70;;
5900;SDS011;2976;49.764;9.796;2023-07-24T00:19:48;9.00;;;4.13;;
5900;SDS011;2976;49.764;9.796;2023-07-24T00:22:14;7.90;;;3.50;;
5900;SDS011;2976;49.764;9.796;2023-07-24T00:24:39;5.23;;;4.07;;
5900;SDS011;2976;49.764;9.796;2023-07-24T00:27:05;9.40;;;3.67;;
5900;SDS011;2976;49.764;9.796;2023-07-24T00:29:30;5.60;;;4.30;;
5900;SDS011;2976;49.764;9.796;2023-07-24T00:31:56;5.93;;;3.57;;
5900;SDS011;2976;49.764;9.796;2023-07-24T00:34:21;8.90;;;4.23;;
5900;SDS011;2976;49.764;9.796;2023-07-24T00:36:47;5.73;;;4.20;;
5900;SDS011;2976;49.764;9.796;2023-07-24T00:39:16;5.17;;;3.77;;
5900;SDS011;2976;49.764;9.796;2023-07-24T00:41:42;4.90;;;3.47;;
5900;SDS011;2976;49.764;9.796;2023-07-24T00:44:08;15.10;;;4.20;;
5900;SDS011;2976;49.764;9.796;2023-07-24T00:46:33;6.50;;;4.63;;
5900;SDS011;2976;49.764;9.796;2023-07-24T00:49:00;11.07;;;5.57;;
5900;SDS011;2976;49.764;9.796;2023-07-24T00:51:27;7.33;;;5.07;;
5900;SDS011;2976;49.764;9.796;2023-07-24T00:53:55;7.30;;;5.07;;
5900;SDS011;2976;49.764;9.796;2023-07-24T00:56:22;6.70;;;4.87;;
5900;SDS011;2976;49.764;9.796;2023-07-24T00:58:48;6.93;;;4.70;;
5900;SDS011;2976;49.764;9.796;2023-07-24T01:01:14;7.70;;;5.00;;
5900;SDS011;2976;49.764;9.796;2023-07-24T01:03:41;9.43;;;4.60;;
5900;SDS011;2976;49.764;9.796;2023-07-24T01:06:08;10.40;;;5.07;;
5900;SDS011;2976;49.764;9.796;2023-07-24T01:08:34;5.20;;;4.70;;
5900;SDS011;2976;49.764;9.796;2023-07-24T01:11:03;10.03;;;5.57;;
5900;SDS011;2976;49.764;9.796;2023-07-24T01:13:36;6.40;;;4.83;;
5900;SDS011;2976;49.764;9.796;2023-07-24T01:16:14;6.07;;;4.67;;
5900;SDS011;2976;49.764;9.796;2023-07-24T01:18:43;7.57;;;5.30;;
5900;SDS011;2976;49.764;9.796;2023-07-24T01:21:11;7.57;;;5.23;;
5900;SDS011;2976;49.764;9.796;2023-07-24T01:26:35;6.53;;;4.93;;
5900;SDS011;2976;49.764;9.796;2023-07-24T01:29:01;7.03;;;5.63;;
5900;SDS011;2976;49.764;9.796;2023-07-24T01:31:26;9.03;;;5.80;;
5900;SDS011;2976;49.764;9.796;2023-07-24T01:33:52;6.30;;;4.83;;
5900;SDS011;2976;49.764;9.796;2023-07-24T01:36:18;7.03;;;5.20;;
5900;SDS011;2976;49.764;9.796;2023-07-24T01:38:44;6.50;;;5.00;;
5900;SDS011;2976;49.764;9.796;2023-07-24T01:41:11;7.63;;;5.57;;
5900;SDS011;2976;49.764;9.796;2023-07-24T01:43:37;6.63;;;5.33;;
5900;SDS011;2976;49.764;9.796;2023-07-24T01:46:02;10.50;;;5.50;;
5900;SDS011;2976;49.764;9.796;2023-07-24T01:48:28;8.40;;;5.13;;
5900;SDS011;2976;49.764;9.796;2023-07-24T01:50:53;7.30;;;5.30;;
5900;SDS011;2976;49.764;9.796;2023-07-24T01:53:19;7.77;;;5.40;;
5900;SDS011;2976;49.764;9.796;2023-07-24T01:55:44;6.93;;;5.40;;
5900;SDS011;2976;49.764;9.796;2023-07-24T01:58:10;7.87;;;5.80;;
5900;SDS011;2976;49.764;9.796;2023-07-24T02:00:35;7.47;;;4.93;;
5900;SDS011;2976;49.764;9.796;2023-07-24T02:03:01;8.20;;;5.50;;
5900;SDS011;2976;49.764;9.796;2023-07-24T02:05:26;6.20;;;5.10;;
5900;SDS011;2976;49.764;9.796;2023-07-24T02:07:52;6.20;;;5.50;;
5900;SDS011;2976;49.764;9.796;2023-07-24T02:10:17;9.70;;;4.67;;
5900;SDS011;2976;49.764;9.796;2023-07-24T02:12:43;8.40;;;5.67;;
5900;SDS011;2976;49.764;9.796;2023-07-24T02:15:09;9.87;;;4.90;;
5900;SDS011;2976;49.764;9.796;2023-07-24T02:17:34;7.30;;;5.40;;
5900;SDS011;2976;49.764;9.796;2023-07-24T02:20:00;13.60;;;6.50;;
5900;SDS011;2976;49.764;9.796;2023-07-24T02:22:26;7.37;;;5.57;;
5900;SDS011;2976;49.764;9.796;2023-07-24T02:24:51;7.90;;;5.03;;
5900;SDS011;2976;49.764;9.796;2023-07-24T02:27:26;6.40;;;4.90;;
5900;SDS011;2976;49.764;9.796;2023-07-24T02:29:53;10.00;;;5.77;;
5900;SDS011;2976;49.764;9.796;2023-07-24T02:32:22;6.57;;;5.23;;
5900;SDS011;2976;49.764;9.796;2023-07-24T02:34:51;11.73;;;5.60;;
5900;SDS011;2976;49.764;9.796;2023-07-24T02:37:17;8.13;;;5.33;;
5900;SDS011;2976;49.764;9.796;2023-07-24T02:39:43;11.53;;;5.00;;
5900;SDS011;2976;49.764;9.796;2023-07-24T02:42:09;7.13;;;5.43;;
5900;SDS011;2976;49.764;9.796;2023-07-24T02:44:34;8.83;;;5.97;;
5900;SDS011;2976;49.764;9.796;2023-07-24T02:47:00;9.53;;;5.40;;
5900;SDS011;2976;49.764;9.796;2023-07-24T02:49:26;10.13;;;5.87;;
5900;SDS011;2976;49.764;9.796;2023-07-24T02:51:51;7.87;;;5.60;;
5900;SDS011;2976;49.764;9.796;2023-07-24T02:54:17;8.97;;;5.37;;
5900;SDS011;2976;49.764;9.796;2023-07-24T02:56:42;10.23;;;5.80;;
5900;SDS011;2976;49.764;9.796;2023-07-24T02:59:08;7.90;;;5.63;;
5900;SDS011;2976;49.764;9.796;2023-07-24T03:01:34;11.50;;;6.07;;
5900;SDS011;2976;49.764;9.796;2023-07-24T03:03:59;8.00;;;5.63;;
5900;SDS011;2976;49.764;9.796;2023-07-24T03:06:25;9.60;;;6.00;;
5900;SDS011;2976;49.764;9.796;2023-07-24T03:08:51;11.40;;;6.17;;
5900;SDS011;2976;49.764;9.796;2023-07-24T03:11:17;7.37;;;5.67;;
5900;SDS011;2976;49.764;9.796;2023-07-24T03:13:42;14.47;;;5.87;;
5900;SDS011;2976;49.764;9.796;2023-07-24T03:16:08;7.33;;;5.47;;
5900;SDS011;2976;49.764;9.796;2023-07-24T03:18:34;8.80;;;6.47;;
5900;SDS011;2976;49.764;9.796;2023-07-24T03:20:59;7.00;;;5.27;;
5900;SDS011;2976;49.764;9.796;2023-07-24T03:23:25;8.10;;;5.97;;
5900;SDS011;2976;49.764;9.796;2023-07-24T03:25:51;6.70;;;5.20;;
5900;SDS011;2976;49.764;9.796;2023-07-24T03:28:16;9.63;;;5.53;;
5900;SDS011;2976;49.764;9.796;2023-07-24T03:30:42;11.30;;;6.17;;
5900;SDS011;2976;49.764;9.796;2023-07-24T03:33:07;9.03;;;6.03;;
5900;SDS011;2976;49.764;9.796;2023-07-24T03:35:33;8.50;;;6.37;;
5900;SDS011;2976;49.764;9.796;2023-07-24T03:37:59;8.20;;;5.67;;
5900;SDS011;2976;49.764;9.796;2023-07-24T03:40:25;8.97;;;5.80;;
5900;SDS011;2976;49.764;9.796;2023-07-24T03:42:50;10.73;;;5.93;;
5900;SDS011;2976;49.764;9.796;2023-07-24T03:45:16;9.33;;;6.67;;
5900;SDS011;2976;49.764;9.796;2023-07-24T03:47:41;10.93;;;6.23;;
5900;SDS011;2976;49.764;9.796;2023-07-24T03:50:07;7.57;;;5.60;;
5900;SDS011;2976;49.764;9.796;2023-07-24T03:52:33;9.27;;;6.00;;
5900;SDS011;2976;49.764;9.796;2023-07-24T03:54:58;7.87;;;5.80;;
5900;SDS011;2976;49.764;9.796;2023-07-24T03:57:24;9.53;;;6.00;;
5900;SDS011;2976;49.764;9.796;2023-07-24T03:59:50;7.53;;;5.27;;
5900;SDS011;2976;49.764;9.796;2023-07-24T04:02:15;6.87;;;5.47;;
5900;SDS011;2976;49.764;9.796;2023-07-24T04:04:41;11.27;;;5.20;;
5900;SDS011;2976;49.764;9.796;2023-07-24T04:07:06;8.23;;;5.60;;
5900;SDS011;2976;49.764;9.796;2023-07-24T04:09:32;8.80;;;6.47;;
5900;SDS011;2976;49.764;9.796;2023-07-24T04:11:58;9.60;;;6.20;;
5900;SDS011;2976;49.764;9.796;2023-07-24T04:14:23;12.33;;;6.30;;
5900;SDS011;2976;49.764;9.796;2023-07-24T04:16:49;7.30;;;4.83;;
5900;SDS011;2976;49.764;9.796;2023-07-24T04:19:14;9.93;;;6.07;;
5900;SDS011;2976;49.764;9.796;2023-07-24T04:21:40;9.30;;;5.87;;
5900;SDS011;2976;49.764;9.796;2023-07-24T04:24:06;8.50;;;5.97;;
5900;SDS011;2976;49.764;9.796;2023-07-24T04:26:32;8.87;;;6.37;;
5900;SDS011;2976;49.764;9.796;2023-07-24T04:28:57;7.73;;;5.23;;
5900;SDS011;2976;49.764;9.796;2023-07-24T04:31:23;9.57;;;6.50;;
5900;SDS011;2976;49.764;9.796;2023-07-24T04:33:48;8.23;;;5.30;;
5900;SDS011;2976;49.764;9.796;2023-07-24T04:36:14;7.53;;;5.30;;
5900;SDS011;2976;49.764;9.796;2023-07-24T04:38:40;7.20;;;5.80;;
5900;SDS011;2976;49.764;9.796;2023-07-24T04:41:05;9.60;;;6.10;;
5900;SDS011;2976;49.764;9.796;2023-07-24T04:43:31;8.40;;;6.43;;
5900;SDS011;2976;49.764;9.796;2023-07-24T04:45:56;10.10;;;6.90;;
5900;SDS011;2976;49.764;9.796;2023-07-24T04:48:22;8.53;;;6.00;;
5900;SDS011;2976;49.764;9.796;2023-07-24T04:50:52;9.00;;;6.20;;
5900;SDS011;2976;49.764;9.796;2023-07-24T04:53:19;9.63;;;6.80;;
5900;SDS011;2976;49.764;9.796;2023-07-24T04:55:45;9.83;;;6.20;;
5900;SDS011;2976;49.764;9.796;2023-07-24T04:58:11;7.57;;;6.07;;
5900;SDS011;2976;49.764;9.796;2023-07-24T05:00:37;10.03;;;6.90;;
5900;SDS011;2976;49.764;9.796;2023-07-24T05:03:02;9.70;;;6.00;;
5900;SDS011;2976;49.764;9.796;2023-07-24T05:05:28;11.33;;;6.57;;
5900;SDS011;2976;49.764;9.796;2023-07-24T05:07:54;9.10;;;6.33;;
5900;SDS011;2976;49.764;9.796;2023-07-24T05:10:19;10.00;;;6.47;;
5900;SDS011;2976;49.764;9.796;2023-07-24T05:12:46;7.73;;;6.17;;
5900;SDS011;2976;49.764;9.796;2023-07-24T05:15:11;10.37;;;7.03;;
5900;SDS011;2976;49.764;9.796;2023-07-24T05:17:37;13.00;;;6.40;;
5900;SDS011;2976;49.764;9.796;2023-07-24T05:20:03;10.10;;;6.10;;
5900;SDS011;2976;49.764;9.796;2023-07-24T05:22:29;11.03;;;7.23;;
5900;SDS011;2976;49.764;9.796;2023-07-24T05:24:55;11.90;;;7.00;;
5900;SDS011;2976;49.764;9.796;2023-07-24T05:27:21;9.90;;;6.70;;
5900;SDS011;2976;49.764;9.796;2023-07-24T05:29:47;9.60;;;6.90;;
5900;SDS011;2976;49.764;9.796;2023-07-24T05:32:13;9.50;;;6.80;;
5900;SDS011;2976;49.764;9.796;2023-07-24T05:34:39;9.17;;;6.93;;
5900;SDS011;2976;49.764;9.796;2023-07-24T05:37:05;10.63;;;6.63;;
5900;SDS011;2976;49.764;9.796;2023-07-24T05:39:31;11.53;;;7.47;;
5900;SDS011;2976;49.764;9.796;2023-07-24T05:41:57;11.43;;;6.97;;
5900;SDS011;2976;49.764;9.796;2023-07-24T05:44:23;10.40;;;7.03;;
5900;SDS011;2976;49.764;9.796;2023-07-24T05:46:49;9.70;;;6.40;;
5900;SDS011;2976;49.764;9.796;2023-07-24T05:49:15;8.90;;;6.53;;
5900;SDS011;2976;49.764;9.796;2023-07-24T05:51:41;13.60;;;7.10;;
5900;SDS011;2976;49.764;9.796;2023-07-24T05:54:07;10.67;;;8.33;;
5900;SDS011;2976;49.764;9.796;2023-07-24T05:56:33;10.73;;;7.47;;
5900;SDS011;2976;49.764;9.796;2023-07-24T05:58:59;9.80;;;6.67;;
5900;SDS011;2976;49.764;9.796;2023-07-24T06:01:25;7.80;;;5.90;;
5900;SDS011;2976;49.764;9.796;2023-07-24T06:03:51;11.90;;;6.27;;
5900;SDS011;2976;49.764;9.796;2023-07-24T06:06:17;11.13;;;7.33;;
5900;SDS011;2976;49.764;9.796;2023-07-24T06:08:44;13.23;;;7.53;;
5900;SDS011;2976;49.764;9.796;2023-07-24T06:11:12;11.33;;;6.50;;
5900;SDS011;2976;49.764;9.796;2023-07-24T06:13:38;8.97;;;6.40;;
5900;SDS011;2976;49.764;9.796;2023-07-24T06:16:04;11.07;;;7.00;;
5900;SDS011;2976;49.764;9.796;2023-07-24T06:18:32;9.47;;;7.60;;
5900;SDS011;2976;49.764;9.796;2023-07-24T06:20:59;8.63;;;6.80;;
5900;SDS011;2976;49.764;9.796;2023-07-24T06:23:25;10.13;;;6.50;;
5900;SDS011;2976;49.764;9.796;2023-07-24T06:25:51;11.30;;;6.67;;
5900;SDS011;2976;49.764;9.796;2023-07-24T06:28:19;10.70;;;7.80;;
5900;SDS011;2976;49.764;9.796;2023-07-24T06:30:45;9.50;;;6.40;;
5900;SDS011;2976;49.764;9.796;2023-07-24T06:33:11;9.80;;;7.30;;
5900;SDS011;2976;49.764;9.796;2023-07-24T06:35:38;10.17;;;6.80;;
5900;SDS011;2976;49.764;9.796;2023-07-24T06:38:04;9.60;;;6.80;;
5900;SDS011;2976;49.764;9.796;2023-07-24T06:40:33;10.77;;;7.17;;
5900;SDS011;2976;49.764;9.796;2023-07-24T06:42:59;8.63;;;6.37;;
5900;SDS011;2976;49.764;9.796;2023-07-24T06:45:26;10.00;;;6.87;;
5900;SDS011;2976;49.764;9.796;2023-07-24T06:47:51;9.97;;;6.77;;
5900;SDS011;2976;49.764;9.796;2023-07-24T06:50:18;10.40;;;7.10;;
5900;SDS011;2976;49.764;9.796;2023-07-24T06:52:44;9.47;;;6.87;;
5900;SDS011;2976;49.764;9.796;2023-07-24T06:55:10;8.40;;;6.60;;
5900;SDS011;2976;49.764;9.796;2023-07-24T06:57:36;9.17;;;6.70;;
5900;SDS011;2976;49.764;9.796;2023-07-24T07:00:02;10.77;;;7.87;;
5900;SDS011;2976;49.764;9.796;2023-07-24T07:02:28;11.70;;;7.47;;
5900;SDS011;2976;49.764;9.796;2023-07-24T07:04:55;7.27;;;6.00;;
5900;SDS011;2976;49.764;9.796;2023-07-24T07:07:21;11.30;;;7.40;;
5900;SDS011;2976;49.764;9.796;2023-07-24T07:09:47;12.93;;;8.50;;
5900;SDS011;2976;49.764;9.796;2023-07-24T07:12:13;10.70;;;7.90;;
5900;SDS011;2976;49.764;9.796;2023-07-24T07:14:39;9.90;;;7.03;;
5900;SDS011;2976;49.764;9.796;2023-07-24T07:17:05;8.63;;;6.60;;
5900;SDS011;2976;49.764;9.796;2023-07-24T07:19:31;9.53;;;7.00;;
5900;SDS011;2976;49.764;9.796;2023-07-24T07:21:58;10.43;;;6.93;;
5900;SDS011;2976;49.764;9.796;2023-07-24T07:24:24;10.00;;;6.67;;
5900;SDS011;2976;49.764;9.796;2023-07-24T07:26:50;7.90;;;6.10;;
5900;SDS011;2976;49.764;9.796;2023-07-24T07:29:16;9.33;;;6.87;;
5900;SDS011;2976;49.764;9.796;2023-07-24T07:31:42;16.23;;;7.13;;
5900;SDS011;2976;49.764;9.796;2023-07-24T07:34:09;10.40;;;7.30;;
5900;SDS011;2976;49.764;9.796;2023-07-24T07:36:36;9.40;;;6.80;;
5900;SDS011;2976;49.764;9.796;2023-07-24T07:39:02;11.87;;;6.60;;
5900;SDS011;2976;49.764;9.796;2023-07-24T07:41:29;12.40;;;7.70;;
5900;SDS011;2976;49.764;9.796;2023-07-24T07:43:56;11.50;;;8.53;;
5900;SDS011;2976;49.764;9.796;2023-07-24T07:46:22;8.97;;;7.17;;
5900;SDS011;2976;49.764;9.796;2023-07-24T07:48:48;10.23;;;7.50;;
5900;SDS011;2976;49.764;9.796;2023-07-24T07:51:15;16.33;;;8.07;;
5900;SDS011;2976;49.764;9.796;2023-07-24T07:53:41;10.43;;;8.10;;
5900;SDS011;2976;49.764;9.796;2023-07-24T07:56:07;10.53;;;7.13;;
5900;SDS011;2976;49.764;9.796;2023-07-24T07:58:33;16.37;;;7.33;;
5900;SDS011;2976;49.764;9.796;2023-07-24T08:01:03;9.03;;;6.50;;
5900;SDS011;2976;49.764;9.796;2023-07-24T08:03:32;9.80;;;7.13;;
5900;SDS011;2976;49.764;9.796;2023-07-24T08:05:59;8.93;;;7.00;;
5900;SDS011;2976;49.764;9.796;2023-07-24T08:08:25;9.93;;;7.23;;
5900;SDS011;2976;49.764;9.796;2023-07-24T08:10:52;11.00;;;7.63;;
5900;SDS011;2976;49.764;9.796;2023-07-24T08:13:18;8.80;;;7.00;;
5900;SDS011;2976;49.764;9.796;2023-07-24T08:15:44;9.43;;;7.53;;
5900;SDS011;2976;49.764;9.796;2023-07-24T08:18:10;9.10;;;7.10;;
5900;SDS011;2976;49.764;9.796;2023-07-24T08:20:37;11.50;;;7.83;;
5900;SDS011;2976;49.764;9.796;2023-07-24T08:23:04;12.90;;;7.73;;
5900;SDS011;2976;49.764;9.796;2023-07-24T08:25:30;12.00;;;7.87;;
5900;SDS011;2976;49.764;9.796;2023-07-24T08:27:56;11.00;;;6.83;;
5900;SDS011;2976;49.764;9.796;2023-07-24T08:30:22;11.90;;;7.63;;
5900;SDS011;2976;49.764;9.796;2023-07-24T08:32:48;13.87;;;7.60;;
5900;SDS011;2976;49.764;9.796;2023-07-24T08:35:15;10.80;;;7.67;;
5900;SDS011;2976;49.764;9.796;2023-07-24T08:37:44;8.43;;;6.80;;
5900;SDS011;2976;49.764;9.796;2023-07-24T08:40:10;16.63;;;8.17;;
5900;SDS011;2976;49.764;9.796;2023-07-24T08:42:39;8.70;;;6.87;;
5900;SDS011;2976;49.764;9.796;2023-07-24T08:45:12;12.87;;;7.60;;
5900;SDS011;2976;49.764;9.796;2023-07-24T08:47:44;12.37;;;7.03;;
5900;SDS011;2976;49.764;9.796;2023-07-24T08:50:10;8.20;;;6.67;;
5900;SDS011;2976;49.764;9.796;2023-07-24T08:52:38;12.07;;;7.37;;
5900;SDS011;2976;49.764;9.796;2023-07-24T08:55:05;10.23;;;6.67;;
5900;SDS011;2976;49.764;9.796;2023-07-24T08:57:31;12.93;;;7.20;;
5900;SDS011;2976;49.764;9.796;2023-07-24T08:59:57;8.43;;;6.90;;
5900;SDS011;2976;49.764;9.796;2023-07-24T09:02:23;10.20;;;6.67;;
5900;SDS011;2976;49.764;9.796;2023-07-24T09:04:49;9.20;;;6.57;;
5900;SDS011;2976;49.764;9.796;2023-07-24T09:07:14;10.83;;;6.70;;
5900;SDS011;2976;49.764;9.796;2023-07-24T09:09:40;11.03;;;7.37;;
5900;SDS011;2976;49.764;9.796;2023-07-24T09:12:05;9.70;;;7.03;;
5900;SDS011;2976;49.764;9.796;2023-07-24T09:14:31;11.90;;;7.40;;
5900;SDS011;2976;49.764;9.796;2023-07-24T09:17:07;10.60;;;7.33;;
5900;SDS011;2976;49.764;9.796;2023-07-24T09:19:33;8.00;;;6.50;;
5900;SDS011;2976;49.764;9.796;2023-07-24T09:22:09;12.23;;;7.80;;
5900;SDS011;2976;49.764;9.796;2023-07-24T09:24:50;11.90;;;6.90;;
5900;SDS011;2976;49.764;9.796;2023-07-24T09:27:20;9.00;;;6.80;;
5900;SDS011;2976;49.764;9.796;2023-07-24T09:29:49;10.50;;;7.20;;
5900;SDS011;2976;49.764;9.796;2023-07-24T09:32:25;9.30;;;6.40;;
5900;SDS011;2976;49.764;9.796;2023-07-24T09:34:51;9.13;;;6.60;;
5900;SDS011;2976;49.764;9.796;2023-07-24T09:37:32;9.40;;;7.67;;
5900;SDS011;2976;49.764;9.796;2023-07-24T09:39:59;11.87;;;7.37;;
5900;SDS011;2976;49.764;9.796;2023-07-24T09:42:28;12.37;;;7.57;;
5900;SDS011;2976;49.764;9.796;2023-07-24T09:44:58;16.57;;;7.30;;
5900;SDS011;2976;49.764;9.796;2023-07-24T09:47:24;13.73;;;8.33;;
5900;SDS011;2976;49.764;9.796;2023-07-24T09:49:51;11.00;;;7.97;;
5900;SDS011;2976;49.764;9.796;2023-07-24T09:52:18;9.83;;;6.50;;
5900;SDS011;2976;49.764;9.796;2023-07-24T09:57:19;11.13;;;7.97;;
5900;SDS011;2976;49.764;9.796;2023-07-24T09:59:46;10.50;;;7.27;;
5900;SDS011;2976;49.764;9.796;2023-07-24T10:02:13;14.33;;;9.23;;
5900;SDS011;2976;49.764;9.796;2023-07-24T10:04:39;10.60;;;7.70;;
5900;SDS011;2976;49.764;9.796;2023-07-24T10:07:06;14.93;;;8.10;;
5900;SDS011;2976;49.764;9.796;2023-07-24T10:09:32;9.13;;;7.33;;
5900;SDS011;2976;49.764;9.796;2023-07-24T10:11:58;11.97;;;7.53;;
5900;SDS011;2976;49.764;9.796;2023-07-24T10:14:25;9.67;;;7.03;;
5900;SDS011;2976;49.764;9.796;2023-07-24T10:16:52;7.57;;;6.77;;
5900;SDS011;2976;49.764;9.796;2023-07-24T10:19:20;10.23;;;7.23;;
5900;SDS011;2976;49.764;9.796;2023-07-24T10:21:47;10.07;;;6.87;;
5900;SDS011;2976;49.764;9.796;2023-07-24T10:24:14;9.53;;;6.87;;
5900;SDS011;2976;49.764;9.796;2023-07-24T10:26:40;10.37;;;7.13;;
5900;SDS011;2976;49.764;9.796;2023-07-24T10:29:06;11.10;;;8.03;;
5900;SDS011;2976;49.764;9.796;2023-07-24T10:31:32;12.57;;;7.10;;
5900;SDS011;2976;49.764;9.796;2023-07-24T10:34:04;10.03;;;7.47;;
5900;SDS011;2976;49.764;9.796;2023-07-24T10:36:33;9.70;;;7.23;;
5900;SDS011;2976;49.764;9.796;2023-07-24T10:39:00;12.23;;;7.10;;
5900;SDS011;2976;49.764;9.796;2023-07-24T10:41:36;10.70;;;7.47;;
5900;SDS011;2976;49.764;9.796;2023-07-24T10:44:02;12.77;;;7.87;;
5900;SDS011;2976;49.764;9.796;2023-07-24T10:46:39;11.20;;;7.60;;
5900;SDS011;2976;49.764;9.796;2023-07-24T10:49:06;10.30;;;6.93;;
5900;SDS011;2976;49.764;9.796;2023-07-24T10:51:32;9.97;;;7.03;;
5900;SDS011;2976;49.764;9.796;2023-07-24T10:53:59;13.87;;;7.47;;
5900;SDS011;2976;49.764;9.796;2023-07-24T10:56:27;11.77;;;7.27;;
5900;SDS011;2976;49.764;9.796;2023-07-24T10:58:52;12.87;;;6.80;;
5900;SDS011;2976;49.764;9.796;2023-07-24T11:01:18;16.93;;;6.87;;
5900;SDS011;2976;49.764;9.796;2023-07-24T11:03:44;11.93;;;6.50;;
5900;SDS011;2976;49.764;9.796;2023-07-24T11:06:16;11.00;;;6.60;;
5900;SDS011;2976;49.764;9.796;2023-07-24T11:08:50;12.73;;;7.00;;
5900;SDS011;2976;49.764;9.796;2023-07-24T11:11:17;8.97;;;6.97;;
5900;SDS011;2976;49.764;9.796;2023-07-24T11:13:43;7.73;;;5.77;;
5900;SDS011;2976;49.764;9.796;2023-07-24T11:16:08;8.73;;;5.70;;
5900;SDS011;2976;49.764;9.796;2023-07-24T11:18:43;12.10;;;7.60;;
5900;SDS011;2976;49.764;9.796;2023-07-24T11:21:11;8.90;;;7.53;;
5900;SDS011;2976;49.764;9.796;2023-07-24T11:23:37;10.40;;;7.03;;
5900;SDS011;2976;49.764;9.796;2023-07-24T11:26:04;11.97;;;7.57;;
5900;SDS011;2976;49.764;9.796;2023-07-24T11:28:38;12.50;;;7.40;;
5900;SDS011;2976;49.764;9.796;2023-07-24T11:31:04;8.97;;;7.03;;
5900;SDS011;2976;49.764;9.796;2023-07-24T11:33:30;12.27;;;6.33;;
5900;SDS011;2976;49.764;9.796;2023-07-24T11:35:56;11.10;;;6.70;;
5900;SDS011;2976;49.764;9.796;2023-07-24T11:38:22;12.93;;;6.83;;
5900;SDS011;2976;49.764;9.796;2023-07-24T11:40:48;11.73;;;7.00;;
5900;SDS011;2976;49.764;9.796;2023-07-24T11:43:19;9.10;;;7.33;;
5900;SDS011;2976;49.764;9.796;2023-07-24T11:45:47;13.00;;;6.53;;
5900;SDS011;2976;49.764;9.796;2023-07-24T11:48:19;9.87;;;7.03;;
5900;SDS011;2976;49.764;9.796;2023-07-24T11:50:47;11.80;;;7.20;;
5900;SDS011;2976;49.764;9.796;2023-07-24T11:55:55;10.13;;;6.87;;
5900;SDS011;2976;49.764;9.796;2023-07-24T11:58:22;10.07;;;6.57;;
5900;SDS011;2976;49.764;9.796;2023-07-24T12:00:51;11.93;;;7.30;;
5900;SDS011;2976;49.764;9.796;2023-07-24T12:03:20;11.23;;;7.40;;
5900;SDS011;2976;49.764;9.796;2023-07-24T12:05:50;10.10;;;7.30;;
5900;SDS011;2976;49.764;9.796;2023-07-24T12:08:16;9.90;;;6.70;;
5900;SDS011;2976;49.764;9.796;2023-07-24T12:10:44;13.87;;;7.20;;
5900;SDS011;2976;49.764;9.796;2023-07-24T12:13:09;9.43;;;6.53;;
5900;SDS011;2976;49.764;9.796;2023-07-24T12:15:36;13.10;;;7.00;;
5900;SDS011;2976;49.764;9.796;2023-07-24T12:18:02;10.10;;;6.83;;
5900;SDS011;2976;49.764;9.796;2023-07-24T12:20:28;8.73;;;6.97;;
5900;SDS011;2976;49.764;9.796;2023-07-24T12:22:54;10.77;;;7.63;;
5900;SDS011;2976;49.764;9.796;2023-07-24T12:25:20;10.43;;;7.43;;
5900;SDS011;2976;49.764;9.796;2023-07-24T12:27:46;8.50;;;5.80;;
5900;SDS011;2976;49.764;9.796;2023-07-24T12:30:12;12.60;;;6.83;;
5900;SDS011;2976;49.764;9.796;2023-07-24T12:32:38;10.97;;;7.30;;
5900;SDS011;2976;49.764;9.796;2023-07-24T12:35:03;9.30;;;6.90;;
5900;SDS011;2976;49.764;9.796;2023-07-24T12:37:29;9.67;;;6.70;;
5900;SDS011;2976;49.764;9.796;2023-07-24T12:39:55;13.20;;;6.63;;
5900;SDS011;2976;49.764;9.796;2023-07-24T12:42:22;9.80;;;7.60;;
5900;SDS011;2976;49.764;9.796;2023-07-24T12:44:48;11.93;;;7.50;;
5900;SDS011;2976;49.764;9.796;2023-07-24T12:47:14;7.77;;;6.60;;
5900;SDS011;2976;49.764;9.796;2023-07-24T12:49:39;9.57;;;7.20;;
5900;SDS011;2976;49.764;9.796;2023-07-24T12:52:05;14.90;;;6.33;;
5900;SDS011;2976;49.764;9.796;2023-07-24T12:54:31;10.20;;;7.30;;
5900;SDS011;2976;49.764;9.796;2023-07-24T12:56:57;10.57;;;6.50;;
5900;SDS011;2976;49.764;9.796;2023-07-24T12:59:22;10.33;;;7.37;;
5900;SDS011;2976;49.764;9.796;2023-07-24T13:01:48;9.27;;;7.60;;
5900;SDS011;2976;49.764;9.796;2023-07-24T13:04:13;15.10;;;7.10;;
5900;SDS011;2976;49.764;9.796;2023-07-24T13:06:39;9.17;;;7.27;;
5900;SDS011;2976;49.764;9.796;2023-07-24T13:09:05;15.17;;;7.10;;
5900;SDS011;2976;49.764;9.796;2023-07-24T13:11:31;8.70;;;6.70;;
5900;SDS011;2976;49.764;9.796;2023-07-24T13:13:56;8.27;;;6.90;;
5900;SDS011;2976;49.764;9.796;2023-07-24T13:16:22;9.17;;;6.80;;
5900;SDS011;2976;49.764;9.796;2023-07-24T13:18:48;12.53;;;6.77;;
5900;SDS011;2976;49.764;9.796;2023-07-24T13:21:14;9.67;;;6.60;;
5900;SDS011;2976;49.764;9.796;2023-07-24T13:23:40;7.17;;;6.50;;
5900;SDS011;2976;49.764;9.796;2023-07-24T13:26:06;10.80;;;6.40;;
5900;SDS011;2976;49.764;9.796;2023-07-24T13:28:38;13.03;;;7.03;;
5900;SDS011;2976;49.764;9.796;2023-07-24T13:31:14;9.90;;;6.50;;
5900;SDS011;2976;49.764;9.796;2023-07-24T13:33:41;8.40;;;6.60;;
5900;SDS011;2976;49.764;9.796;2023-07-24T13:36:07;11.57;;;6.77;;
5900;SDS011;2976;49.764;9.796;2023-07-24T13:38:33;12.00;;;6.00;;
5900;SDS011;2976;49.764;9.796;2023-07-24T13:40:58;9.17;;;6.77;;
5900;SDS011;2976;49.764;9.796;2023-07-24T13:43:24;10.40;;;6.10;;
5900;SDS011;2976;49.764;9.796;2023-07-24T13:45:50;12.40;;;6.87;;
5900;SDS011;2976;49.764;9.796;2023-07-24T13:48:15;11.30;;;6.87;;
5900;SDS011;2976;49.764;9.796;2023-07-24T13:50:41;7.73;;;6.87;;
5900;SDS011;2976;49.764;9.796;2023-07-24T13:53:06;8.97;;;7.33;;
5900;SDS011;2976;49.764;9.796;2023-07-24T13:55:32;14.93;;;7.33;;
5900;SDS011;2976;49.764;9.796;2023-07-24T13:57:58;8.70;;;6.80;;
5900;SDS011;2976;49.764;9.796;2023-07-24T14:00:23;11.10;;;7.37;;
5900;SDS011;2976;49.764;9.796;2023-07-24T14:02:49;8.07;;;6.70;;
5900;SDS011;2976;49.764;9.796;2023-07-24T14:05:15;10.53;;;7.43;;
5900;SDS011;2976;49.764;9.796;2023-07-24T14:07:41;12.23;;;6.60;;
5900;SDS011;2976;49.764;9.796;2023-07-24T14:10:07;9.30;;;6.30;;
5900;SDS011;2976;49.764;9.796;2023-07-24T14:12:33;8.47;;;6.70;;
5900;SDS011;2976;49.764;9.796;2023-07-24T14:14:59;8.60;;;6.60;;
5900;SDS011;2976;49.764;9.796;2023-07-24T14:17:24;8.97;;;7.23;;
5900;SDS011;2976;49.764;9.796;2023-07-24T14:19:50;9.10;;;6.67;;
5900;SDS011;2976;49.764;9.796;2023-07-24T14:22:16;9.07;;;6.73;;
5900;SDS011;2976;49.764;9.796;2023-07-24T14:24:41;8.40;;;6.90;;
5900;SDS011;2976;49.764;9.796;2023-07-24T14:27:07;10.70;;;7.20;;
5900;SDS011;2976;49.764;9.796;2023-07-24T14:29:32;11.37;;;7.10;;
5900;SDS011;2976;49.764;9.796;2023-07-24T14:31:58;11.50;;;6.97;;
5900;SDS011;2976;49.764;9.796;2023-07-24T14:34:24;7.43;;;6.10;;
5900;SDS011;2976;49.764;9.796;2023-07-24T14:36:49;13.03;;;6.87;;
5900;SDS011;2976;49.764;9.796;2023-07-24T14:39:15;7.33;;;5.67;;
5900;SDS011;2976;49.764;9.796;2023-07-24T14:41:40;8.60;;;6.47;;
5900;SDS011;2976;49.764;9.796;2023-07-24T14:44:06;9.50;;;6.07;;
5900;SDS011;2976;49.764;9.796;2023-07-24T14:46:31;10.87;;;7.47;;
5900;SDS011;2976;49.764;9.796;2023-07-24T14:48:57;9.13;;;6.90;;
5900;SDS011;2976;49.764;9.796;2023-07-24T14:51:23;10.73;;;7.30;;
5900;SDS011;2976;49.764;9.796;2023-07-24T14:53:50;8.33;;;6.83;;
5900;SDS011;2976;49.764;9.796;2023-07-24T14:56:15;8.53;;;6.53;;
5900;SDS011;2976;49.764;9.796;2023-07-24T14:58:41;8.47;;;6.23;;
5900;SDS011;2976;49.764;9.796;2023-07-24T15:01:10;9.50;;;6.83;;
5900;SDS011;2976;49.764;9.796;2023-07-24T15:03:36;9.57;;;6.80;;
5900;SDS011;2976;49.764;9.796;2023-07-24T15:06:01;12.40;;;6.83;;
5900;SDS011;2976;49.764;9.796;2023-07-24T15:08:29;9.43;;;6.80;;
5900;SDS011;2976;49.764;9.796;2023-07-24T15:10:55;8.37;;;5.80;;
5900;SDS011;2976;49.764;9.796;2023-07-24T15:13:21;7.87;;;5.90;;